createdAt,value
2019-03-22T00:01:18.526Z,5.20
2019-03-22T00:03:52.310Z,5.20
2019-03-22T00:06:27.392Z,5.10
2019-03-22T00:09:01.274Z,5.10
2019-03-22T00:11:37.190Z,5.00
2019-03-22T00:14:11.623Z,5.00
2019-03-22T00:16:45.208Z,5.00
2019-03-22T00:19:20.255Z,5.00
2019-03-22T00:21:53.777Z,5.00
2019-03-22T00:24:26.877Z,4.90
2019-03-22T00:27:00.081Z,4.90
2019-03-22T00:29:33.178Z,4.90
2019-03-22T00:32:06.958Z,4.90
2019-03-22T00:34:41.535Z,4.90
2019-03-22T00:37:15.403Z,4.90
2019-03-22T00:39:49.175Z,4.90
2019-03-22T00:42:22.864Z,4.80
2019-03-22T00:44:56.950Z,4.70
2019-03-22T00:47:29.761Z,4.70
2019-03-22T00:50:03.000Z,4.60
2019-03-22T00:52:37.194Z,4.60
2019-03-22T00:55:10.425Z,4.50
2019-03-22T00:57:44.625Z,4.50
2019-03-22T01:00:18.910Z,4.50
2019-03-22T01:02:52.920Z,4.50
2019-03-22T01:05:26.739Z,4.50
2019-03-22T01:07:59.796Z,4.40
2019-03-22T01:10:33.383Z,4.30
2019-03-22T01:13:08.472Z,4.30
2019-03-22T01:15:44.283Z,4.30
2019-03-22T01:18:17.799Z,4.30
2019-03-22T01:20:51.902Z,4.30
2019-03-22T01:23:25.283Z,4.30
2019-03-22T01:25:58.278Z,4.20
2019-03-22T01:28:32.662Z,4.30
2019-03-22T01:31:07.023Z,4.30
2019-03-22T01:33:40.463Z,4.20
2019-03-22T01:36:16.392Z,4.20
2019-03-22T01:38:50.270Z,4.30
2019-03-22T01:41:23.393Z,4.40
2019-03-22T01:44:01.120Z,4.40
2019-03-22T01:46:36.103Z,4.40
2019-03-22T01:49:11.328Z,4.50
2019-03-22T01:51:45.480Z,4.50
2019-03-22T01:54:19.375Z,4.50
2019-03-22T01:56:54.047Z,4.40
2019-03-22T01:59:28.020Z,4.30
2019-03-22T02:02:01.211Z,4.30
2019-03-22T02:04:34.503Z,4.20
2019-03-22T02:07:07.699Z,4.10
2019-03-22T02:09:41.622Z,4.10
2019-03-22T02:12:15.885Z,4.00
2019-03-22T02:14:51.648Z,3.90
2019-03-22T02:17:25.047Z,3.90
2019-03-22T02:19:58.139Z,3.90
2019-03-22T02:22:31.942Z,3.90
2019-03-22T02:25:05.581Z,3.90
2019-03-22T02:27:38.707Z,3.90
2019-03-22T02:30:12.009Z,3.80
2019-03-22T02:32:46.025Z,3.80
2019-03-22T02:35:28.427Z,3.80
2019-03-22T02:37:54.468Z,3.70
2019-03-22T02:40:27.871Z,3.60
2019-03-22T02:43:02.280Z,3.60
2019-03-22T02:45:35.765Z,3.50
2019-03-22T02:48:10.016Z,3.50
2019-03-22T02:50:45.038Z,3.60
2019-03-22T02:53:18.789Z,3.90
2019-03-22T02:55:53.117Z,3.90
2019-03-22T02:58:26.460Z,3.90
2019-03-22T03:01:00.365Z,3.90
2019-03-22T03:03:33.601Z,3.90
2019-03-22T03:06:06.441Z,3.80
2019-03-22T03:08:39.857Z,3.70
2019-03-22T03:11:13.608Z,3.60
2019-03-22T03:13:47.697Z,3.60
2019-03-22T03:16:21.905Z,3.50
2019-03-22T03:18:58.000Z,3.50
2019-03-22T03:21:31.286Z,3.40
2019-03-22T03:24:04.769Z,3.40
2019-03-22T03:26:38.783Z,3.30
2019-03-22T03:29:12.085Z,3.30
2019-03-22T03:31:45.114Z,3.30
2019-03-22T03:34:19.218Z,3.20
2019-03-22T03:36:53.089Z,3.20
2019-03-22T03:39:26.276Z,3.20
2019-03-22T03:41:59.982Z,3.20
2019-03-22T03:44:33.894Z,3.20
2019-03-22T03:47:10.472Z,3.20
2019-03-22T03:49:42.601Z,3.20
2019-03-22T03:52:15.662Z,3.20
2019-03-22T03:54:49.076Z,3.20
2019-03-22T03:57:22.709Z,3.20
2019-03-22T03:59:57.282Z,3.20
2019-03-22T04:02:30.800Z,3.10
2019-03-22T04:05:04.500Z,3.10
2019-03-22T04:07:38.957Z,3.10
2019-03-22T04:10:12.864Z,3.10
2019-03-22T04:12:46.801Z,3.10
2019-03-22T04:15:20.290Z,3.00
2019-03-22T04:17:54.373Z,3.00
2019-03-22T04:20:28.485Z,3.00
2019-03-22T04:23:03.226Z,3.00
2019-03-22T04:25:36.347Z,3.10
2019-03-22T04:28:09.707Z,3.10
2019-03-22T04:30:42.612Z,3.00
2019-03-22T04:33:16.298Z,3.00
2019-03-22T04:35:49.742Z,3.00
2019-03-22T04:38:59.658Z,3.00
2019-03-22T04:41:35.093Z,3.00
2019-03-22T04:44:08.169Z,2.90
2019-03-22T04:46:48.889Z,2.90
2019-03-22T04:49:27.747Z,2.80
2019-03-22T04:52:01.994Z,2.90
2019-03-22T04:54:37.963Z,2.90
2019-03-22T04:57:13.726Z,2.90
2019-03-22T04:59:49.216Z,2.90
2019-03-22T05:02:22.723Z,2.90
2019-03-22T05:04:56.498Z,2.90
2019-03-22T05:07:31.530Z,3.00
2019-03-22T05:10:05.344Z,3.00
2019-03-22T05:12:39.978Z,2.90
2019-03-22T05:15:16.908Z,2.90
2019-03-22T05:17:50.642Z,2.90
2019-03-22T05:20:24.099Z,2.90
2019-03-22T05:22:58.291Z,2.80
2019-03-22T05:25:33.569Z,2.80
2019-03-22T05:28:08.633Z,2.80
2019-03-22T05:31:29.995Z,2.70
2019-03-22T05:34:02.880Z,2.70
2019-03-22T05:36:36.172Z,2.70
2019-03-22T05:39:11.771Z,2.70
2019-03-22T05:41:44.555Z,2.60
2019-03-22T05:44:18.662Z,2.60
2019-03-22T05:46:52.046Z,2.60
2019-03-22T05:49:25.493Z,2.60
2019-03-22T05:51:59.445Z,2.60
2019-03-22T05:54:32.966Z,2.70
2019-03-22T05:57:13.324Z,2.80
2019-03-22T05:59:43.223Z,2.80
2019-03-22T06:02:19.066Z,2.80
2019-03-22T06:04:54.153Z,2.90
2019-03-22T06:07:27.752Z,2.90
2019-03-22T06:10:01.542Z,2.90
2019-03-22T06:12:34.878Z,2.90
2019-03-22T06:15:08.776Z,3.00
2019-03-22T06:17:51.285Z,3.00
2019-03-22T06:20:17.540Z,3.00
2019-03-22T06:22:51.330Z,3.00
2019-03-22T06:25:24.566Z,3.10
2019-03-22T06:27:58.465Z,3.20
2019-03-22T06:30:32.295Z,3.20
2019-03-22T06:33:05.866Z,3.30
2019-03-22T06:35:39.325Z,3.40
2019-03-22T06:38:13.165Z,3.50
2019-03-22T06:40:48.567Z,3.60
2019-03-22T06:43:23.053Z,3.70
2019-03-22T06:45:57.463Z,3.80
2019-03-22T06:48:32.238Z,3.90
2019-03-22T06:51:06.698Z,4.00
2019-03-22T06:53:41.568Z,4.10
2019-03-22T06:56:16.381Z,4.20
2019-03-22T06:58:51.154Z,4.30
2019-03-22T07:01:25.248Z,4.50
2019-03-22T07:03:59.709Z,4.60
2019-03-22T07:06:33.883Z,4.70
2019-03-22T07:09:10.336Z,4.80
2019-03-22T07:11:43.950Z,4.90
2019-03-22T07:14:17.709Z,5.00
2019-03-22T07:16:51.153Z,5.10
2019-03-22T07:19:25.257Z,5.30
2019-03-22T07:21:58.605Z,5.50
2019-03-22T07:24:32.238Z,5.60
2019-03-22T07:27:06.701Z,5.70
2019-03-22T07:29:41.042Z,5.90
2019-03-22T07:32:18.975Z,6.00
2019-03-22T07:34:53.970Z,6.10
2019-03-22T07:37:29.183Z,6.30
2019-03-22T07:40:03.868Z,6.40
2019-03-22T07:42:39.357Z,6.50
2019-03-22T07:45:14.080Z,6.70
2019-03-22T07:47:50.754Z,6.90
2019-03-22T07:50:25.868Z,7.00
2019-03-22T07:53:02.141Z,7.20
2019-03-22T07:55:41.922Z,7.30
2019-03-22T07:58:21.139Z,7.50
2019-03-22T08:00:56.730Z,7.70
2019-03-22T08:03:32.824Z,7.90
2019-03-22T08:06:08.504Z,8.10
2019-03-22T08:08:47.364Z,8.30
2019-03-22T08:11:24.653Z,8.40
2019-03-22T08:14:01.661Z,8.60
2019-03-22T08:16:41.413Z,8.80
2019-03-22T08:19:18.979Z,9.00
2019-03-22T08:21:54.636Z,9.30
2019-03-22T08:24:30.027Z,9.50
2019-03-22T08:27:05.033Z,9.70
2019-03-22T08:29:40.366Z,9.90
2019-03-22T08:32:16.882Z,10.00
2019-03-22T08:34:51.748Z,10.20
2019-03-22T08:37:25.597Z,10.40
2019-03-22T08:40:01.344Z,10.70
2019-03-22T08:42:37.314Z,11.00
2019-03-22T08:45:12.205Z,11.10
2019-03-22T08:47:47.124Z,11.30
2019-03-22T08:50:22.862Z,11.40
2019-03-22T08:53:00.876Z,11.70
2019-03-22T08:55:37.031Z,11.80
2019-03-22T08:58:11.551Z,11.90
2019-03-22T09:00:57.227Z,12.20
2019-03-22T09:03:24.122Z,12.40
2019-03-22T09:06:00.557Z,12.50
2019-03-22T09:08:35.503Z,12.70
2019-03-22T09:11:12.002Z,12.90
2019-03-22T09:13:46.763Z,13.00
2019-03-22T09:16:22.370Z,13.00
2019-03-22T09:18:56.574Z,13.10
2019-03-22T09:21:32.655Z,13.20
2019-03-22T09:24:08.601Z,13.30
2019-03-22T09:26:47.943Z,13.40
2019-03-22T09:29:19.423Z,13.50
2019-03-22T09:31:54.759Z,13.70
2019-03-22T09:34:34.306Z,13.90
2019-03-22T09:37:09.078Z,14.10
2019-03-22T09:39:44.154Z,14.20
2019-03-22T09:42:18.822Z,14.40
2019-03-22T09:44:53.382Z,14.40
2019-03-22T09:47:27.728Z,14.40
2019-03-22T09:50:01.288Z,14.60
2019-03-22T09:52:35.849Z,14.80
2019-03-22T09:55:13.654Z,14.90
2019-03-22T09:57:49.436Z,15.10
2019-03-22T10:00:34.282Z,15.20
2019-03-22T10:03:08.877Z,15.40
2019-03-22T10:05:42.986Z,15.50
2019-03-22T10:08:17.165Z,15.70
2019-03-22T10:10:51.614Z,15.80
2019-03-22T10:13:25.959Z,16.20
2019-03-22T10:16:01.236Z,17.50
2019-03-22T10:18:37.285Z,19.40
2019-03-22T10:21:21.876Z,20.90
2019-03-22T10:23:47.671Z,22.00
2019-03-22T10:26:21.892Z,22.50
2019-03-22T10:28:58.830Z,23.40
2019-03-22T10:31:37.484Z,24.00
2019-03-22T10:34:10.365Z,24.30
2019-03-22T10:36:44.380Z,24.30
2019-03-22T10:39:18.834Z,24.70
2019-03-22T10:41:53.032Z,25.00
2019-03-22T10:44:29.004Z,25.30
2019-03-22T10:47:03.575Z,25.10
2019-03-22T10:49:41.727Z,24.90
2019-03-22T10:52:14.474Z,25.20
2019-03-22T10:54:49.809Z,25.10
2019-03-22T10:57:23.786Z,25.30
2019-03-22T10:59:57.506Z,25.30
2019-03-22T11:02:31.677Z,25.50
2019-03-22T11:05:05.353Z,26.00
2019-03-22T11:07:39.928Z,26.20
2019-03-22T11:10:14.747Z,26.10
2019-03-22T11:12:49.166Z,26.20
2019-03-22T11:15:24.136Z,26.40
2019-03-22T11:17:57.996Z,26.50
2019-03-22T11:20:34.362Z,26.70
2019-03-22T11:23:10.121Z,27.10
2019-03-22T11:25:44.782Z,27.00
2019-03-22T11:28:19.724Z,27.00
2019-03-22T11:31:04.705Z,26.70
2019-03-22T11:33:35.668Z,26.60
2019-03-22T11:36:10.772Z,26.40
2019-03-22T11:38:47.690Z,26.70
2019-03-22T11:41:23.747Z,26.90
2019-03-22T11:43:57.873Z,27.50
2019-03-22T11:46:32.600Z,27.70
2019-03-22T11:49:07.936Z,27.80
2019-03-22T11:51:42.245Z,27.90
2019-03-22T11:54:17.484Z,28.20
2019-03-22T11:56:54.458Z,28.40
2019-03-22T11:59:28.726Z,28.40
2019-03-22T12:02:02.850Z,27.90
2019-03-22T12:04:36.714Z,28.10
2019-03-22T12:07:10.852Z,28.50
2019-03-22T12:09:44.460Z,28.50
2019-03-22T12:12:18.226Z,28.80
2019-03-22T12:14:51.467Z,28.70
2019-03-22T12:17:25.782Z,28.80
2019-03-22T12:20:01.386Z,29.40
2019-03-22T12:22:35.447Z,29.70
2019-03-22T12:25:11.439Z,29.70
2019-03-22T12:27:45.389Z,29.70
2019-03-22T12:30:21.439Z,29.70
2019-03-22T12:32:57.812Z,29.20
2019-03-22T12:35:32.313Z,29.40
2019-03-22T12:38:06.129Z,29.40
2019-03-22T12:40:40.443Z,29.30
2019-03-22T12:43:14.201Z,29.30
2019-03-22T12:45:48.326Z,29.60
2019-03-22T12:48:21.989Z,29.50
2019-03-22T12:50:57.026Z,29.40
2019-03-22T12:53:31.333Z,29.90
2019-03-22T12:56:05.770Z,29.70
2019-03-22T12:58:40.832Z,30.00
2019-03-22T13:01:15.267Z,30.40
2019-03-22T13:03:49.208Z,30.50
2019-03-22T13:06:22.667Z,30.80
2019-03-22T13:08:56.945Z,30.90
2019-03-22T13:11:30.402Z,30.10
2019-03-22T13:14:04.405Z,30.20
2019-03-22T13:16:38.200Z,30.30
2019-03-22T13:19:13.324Z,30.50
2019-03-22T13:21:45.971Z,30.80
2019-03-22T13:24:17.937Z,30.70
2019-03-22T13:26:49.920Z,30.60
2019-03-22T13:29:22.478Z,31.00
2019-03-22T13:31:55.851Z,31.30
2019-03-22T13:34:28.339Z,31.40
2019-03-22T13:37:00.957Z,31.30
2019-03-22T13:39:34.143Z,31.20
2019-03-22T13:42:07.836Z,31.80
2019-03-22T13:44:39.985Z,31.80
2019-03-22T13:47:13.662Z,31.70
2019-03-22T13:49:46.487Z,31.50
2019-03-22T13:52:18.965Z,31.50
2019-03-22T13:54:52.141Z,31.40
2019-03-22T13:57:24.363Z,31.30
2019-03-22T13:59:58.594Z,31.50
2019-03-22T14:02:30.721Z,31.70
2019-03-22T14:05:03.264Z,31.60
2019-03-22T14:07:40.188Z,31.20
2019-03-22T14:10:20.493Z,31.30
2019-03-22T14:12:53.179Z,31.90
2019-03-22T14:15:26.569Z,32.00
2019-03-22T14:18:08.756Z,32.40
2019-03-22T14:20:41.122Z,32.90
2019-03-22T14:23:14.505Z,32.80
2019-03-22T14:25:47.447Z,32.00
2019-03-22T14:28:24.590Z,31.60
2019-03-22T14:30:57.148Z,32.20
2019-03-22T14:33:29.559Z,32.70
2019-03-22T14:36:04.090Z,32.80
2019-03-22T14:38:36.502Z,32.80
2019-03-22T14:41:12.036Z,32.90
2019-03-22T14:43:44.865Z,32.20
2019-03-22T14:46:18.450Z,31.60
2019-03-22T14:48:51.271Z,31.20
2019-03-22T14:51:23.479Z,30.90
2019-03-22T14:53:56.771Z,30.80
2019-03-22T14:56:29.434Z,31.40
2019-03-22T14:59:01.346Z,31.90
2019-03-22T15:01:32.871Z,32.30
2019-03-22T15:04:07.614Z,32.80
2019-03-22T15:06:40.102Z,33.20
2019-03-22T15:09:14.408Z,33.20
2019-03-22T15:11:46.815Z,33.00
2019-03-22T15:14:33.929Z,32.70
2019-03-22T15:17:28.150Z,32.80
2019-03-22T15:20:12.499Z,32.60
2019-03-22T15:23:02.374Z,32.50
2019-03-22T15:25:52.371Z,32.50
2019-03-22T15:28:47.672Z,32.80
2019-03-22T15:31:41.843Z,32.60
2019-03-22T15:34:36.924Z,32.90
2019-03-22T15:37:31.390Z,32.60
2019-03-22T15:40:05.372Z,32.30
2019-03-22T15:42:37.393Z,32.00
2019-03-22T15:45:12.038Z,31.50
2019-03-22T15:47:46.275Z,30.90
2019-03-22T15:50:19.005Z,30.90
2019-03-22T15:52:52.716Z,31.00
2019-03-22T15:55:24.975Z,31.30
2019-03-22T15:57:57.436Z,31.30
2019-03-22T16:00:29.891Z,31.60
2019-03-22T16:03:06.486Z,31.50
2019-03-22T16:05:39.284Z,31.00
2019-03-22T16:08:12.910Z,30.90
2019-03-22T16:10:45.308Z,30.80
2019-03-22T16:13:27.274Z,30.80
2019-03-22T16:16:00.423Z,30.50
2019-03-22T16:18:33.598Z,30.50
2019-03-22T16:21:05.665Z,30.60
2019-03-22T16:23:38.891Z,30.20
2019-03-22T16:26:11.244Z,30.10
2019-03-22T16:28:44.065Z,30.10
2019-03-22T16:31:17.861Z,30.00
2019-03-22T16:33:54.795Z,29.90
2019-03-22T16:36:28.932Z,29.70
2019-03-22T16:39:01.567Z,29.00
2019-03-22T16:41:35.661Z,28.80
2019-03-22T16:44:08.053Z,28.70
2019-03-22T16:46:41.211Z,28.80
2019-03-22T16:49:13.689Z,28.70
2019-03-22T16:51:46.806Z,28.50
2019-03-22T16:54:19.905Z,28.50
2019-03-22T16:56:52.116Z,28.40
2019-03-22T16:59:24.278Z,28.10
2019-03-22T17:01:57.114Z,27.70
2019-03-22T17:04:29.291Z,27.50
2019-03-22T17:07:04.070Z,27.30
2019-03-22T17:09:36.460Z,27.20
2019-03-22T17:12:08.675Z,27.00
2019-03-22T17:14:41.105Z,26.70
2019-03-22T17:17:14.113Z,26.40
2019-03-22T17:19:46.691Z,26.10
2019-03-22T17:22:20.549Z,25.70
2019-03-22T17:24:53.113Z,25.20
2019-03-22T17:27:25.696Z,24.60
2019-03-22T17:29:58.260Z,23.90
2019-03-22T17:32:31.048Z,23.20
2019-03-22T17:35:03.418Z,22.60
2019-03-22T17:37:36.755Z,22.00
2019-03-22T17:40:09.864Z,21.50
2019-03-22T17:42:46.016Z,21.10
2019-03-22T17:45:19.766Z,20.70
2019-03-22T17:47:52.626Z,20.20
2019-03-22T17:50:27.106Z,19.90
2019-03-22T17:53:00.181Z,19.50
2019-03-22T17:55:33.959Z,19.20
2019-03-22T17:58:07.070Z,19.00
2019-03-22T18:00:42.381Z,18.70
2019-03-22T18:03:16.022Z,18.40
2019-03-22T18:05:48.182Z,18.20
2019-03-22T18:08:22.525Z,17.90
2019-03-22T18:10:55.099Z,17.60
2019-03-22T18:13:28.640Z,17.20
2019-03-22T18:16:01.779Z,17.00
2019-03-22T18:18:33.780Z,16.70
2019-03-22T18:21:06.631Z,16.50
2019-03-22T18:23:39.230Z,16.20
2019-03-22T18:26:12.013Z,16.00
2019-03-22T18:28:44.121Z,15.70
2019-03-22T18:31:16.585Z,15.50
2019-03-22T18:33:48.347Z,15.30
2019-03-22T18:36:24.267Z,15.10
2019-03-22T18:38:59.007Z,14.90
2019-03-22T18:41:32.148Z,14.80
2019-03-22T18:44:05.534Z,14.60
2019-03-22T18:46:39.444Z,14.40
2019-03-22T18:49:12.088Z,14.20
2019-03-22T18:51:47.027Z,14.00
2019-03-22T18:54:19.790Z,13.90
2019-03-22T18:56:53.299Z,13.70
2019-03-22T18:59:25.569Z,13.50
2019-03-22T19:01:57.364Z,13.40
2019-03-22T19:04:29.522Z,13.20
2019-03-22T19:07:06.751Z,13.00
2019-03-22T19:09:41.505Z,12.90
2019-03-22T19:12:15.703Z,12.80
2019-03-22T19:14:48.766Z,12.60
2019-03-22T19:17:21.714Z,12.50
2019-03-22T19:19:59.402Z,12.40
2019-03-22T19:22:33.876Z,12.20
2019-03-22T19:25:08.342Z,12.10
2019-03-22T19:27:41.571Z,12.00
2019-03-22T19:30:20.882Z,11.90
2019-03-22T19:32:54.031Z,11.70
2019-03-22T19:35:26.335Z,11.60
2019-03-22T19:37:59.547Z,11.50
2019-03-22T19:40:39.370Z,11.40
2019-03-22T19:43:17.273Z,11.30
2019-03-22T19:45:56.863Z,11.10
2019-03-22T19:48:47.469Z,11.00
2019-03-22T19:51:32.480Z,10.90
2019-03-22T19:54:11.119Z,10.90
2019-03-22T19:56:56.098Z,10.70
2019-03-22T19:59:34.025Z,10.60
2019-03-22T20:02:09.957Z,10.50
2019-03-22T20:04:45.408Z,10.40
2019-03-22T20:07:26.843Z,10.30
2019-03-22T20:09:57.232Z,10.20
2019-03-22T20:12:37.362Z,10.10
2019-03-22T20:15:16.564Z,10.00
2019-03-22T20:17:50.911Z,9.90
2019-03-22T20:20:24.517Z,9.80
2019-03-22T20:22:59.298Z,9.80
2019-03-22T20:25:44.760Z,9.70
2019-03-22T20:28:18.327Z,9.60
2019-03-22T20:30:56.433Z,9.50
2019-03-22T20:33:29.974Z,9.40
2019-03-22T20:36:03.285Z,9.30
2019-03-22T20:38:37.347Z,9.20
2019-03-22T20:41:11.449Z,9.20
2019-03-22T20:43:45.420Z,9.20
2019-03-22T20:46:20.136Z,9.10
2019-03-22T20:49:01.468Z,9.00
2019-03-22T20:51:33.966Z,9.00
2019-03-22T20:54:10.233Z,8.90
2019-03-22T20:56:44.082Z,8.90
2019-03-22T20:59:19.363Z,9.30
2019-03-22T21:01:52.054Z,9.60
2019-03-22T21:04:27.621Z,9.80
2019-03-22T21:07:01.435Z,9.90
2019-03-22T21:09:35.333Z,10.00
2019-03-22T21:12:09.821Z,10.10
2019-03-22T21:14:43.075Z,10.10
2019-03-22T21:17:25.661Z,9.90
2019-03-22T21:20:04.680Z,9.80
2019-03-22T21:22:38.731Z,9.80
2019-03-22T21:25:27.016Z,9.70
2019-03-22T21:28:04.093Z,9.60
2019-03-22T21:30:43.027Z,9.70
2019-03-22T21:33:20.060Z,9.60
2019-03-22T21:35:57.333Z,9.50
2019-03-22T21:38:47.760Z,9.50
2019-03-22T21:41:40.052Z,9.60
2019-03-22T21:44:17.518Z,9.60
2019-03-22T21:46:53.898Z,9.60
2019-03-22T21:49:30.321Z,9.40
2019-03-22T21:52:07.117Z,9.40
2019-03-22T21:54:43.025Z,9.30
2019-03-22T21:57:22.354Z,9.30
2019-03-22T21:59:58.012Z,9.30
2019-03-22T22:02:34.020Z,9.30
2019-03-22T22:05:08.457Z,9.30
2019-03-22T22:07:41.493Z,9.30
2019-03-22T22:10:16.159Z,9.20
2019-03-22T22:12:49.248Z,9.10
2019-03-22T22:15:22.217Z,8.90
2019-03-22T22:17:55.844Z,8.80
2019-03-22T22:20:30.480Z,8.70
2019-03-22T22:23:05.894Z,8.50
2019-03-22T22:25:40.922Z,8.50
2019-03-22T22:28:16.930Z,8.50
2019-03-22T22:30:53.877Z,8.60
2019-03-22T22:33:30.236Z,8.70
2019-03-22T22:36:06.017Z,8.70
2019-03-22T22:38:40.914Z,8.80
2019-03-22T22:41:14.619Z,8.70
2019-03-22T22:43:48.279Z,8.70
2019-03-22T22:46:21.802Z,8.60
2019-03-22T22:48:55.845Z,8.50
2019-03-22T22:51:31.943Z,8.50
2019-03-22T22:54:15.209Z,8.40
2019-03-22T22:56:48.845Z,8.50
2019-03-22T22:59:23.441Z,8.50
2019-03-22T23:02:00.812Z,8.50
2019-03-22T23:04:34.169Z,8.70
2019-03-22T23:07:09.897Z,8.70
2019-03-22T23:09:43.806Z,8.70
2019-03-22T23:12:19.432Z,8.70
2019-03-22T23:15:08.703Z,8.60
2019-03-22T23:17:42.449Z,8.60
2019-03-22T23:20:17.929Z,8.70
2019-03-22T23:22:50.338Z,8.80
2019-03-22T23:25:24.061Z,8.80
2019-03-22T23:28:00.805Z,8.80
2019-03-22T23:30:33.755Z,8.80
2019-03-22T23:33:14.242Z,8.80
2019-03-22T23:35:48.282Z,8.70
2019-03-22T23:38:21.697Z,8.60
2019-03-22T23:40:55.476Z,8.60
2019-03-22T23:43:30.463Z,8.50
2019-03-22T23:46:04.217Z,8.40
2019-03-22T23:48:42.511Z,8.30
2019-03-22T23:51:15.767Z,8.30
2019-03-22T23:53:48.822Z,8.10
2019-03-22T23:56:21.246Z,7.90
2019-03-22T23:58:57.055Z,7.80
